sensor_id;sensor_type;location;lat;lon;timestamp;P1;durP1;ratioP1;P2;durP2;ratioP2
34711;SDS011;20941;42.408;25.634;2022-12-16T00:00:24;30.58;;;17.40;;
34711;SDS011;20941;42.408;25.634;2022-12-16T00:02:50;32.50;;;17.70;;
34711;SDS011;20941;42.408;25.634;2022-12-16T00:05:16;33.50;;;18.10;;
34711;SDS011;20941;42.408;25.634;2022-12-16T00:07:44;38.83;;;19.50;;
34711;SDS011;20941;42.408;25.634;2022-12-16T00:10:10;39.67;;;19.08;;
34711;SDS011;20941;42.408;25.634;2022-12-16T00:12:36;36.60;;;18.42;;
34711;SDS011;20941;42.408;25.634;2022-12-16T00:15:01;38.00;;;18.85;;
34711;SDS011;20941;42.408;25.634;2022-12-16T00:17:27;46.30;;;21.60;;
34711;SDS011;20941;42.408;25.634;2022-12-16T00:19:53;46.22;;;21.55;;
34711;SDS011;20941;42.408;25.634;2022-12-16T00:22:19;50.15;;;22.45;;
34711;SDS011;20941;42.408;25.634;2022-12-16T00:24:45;42.83;;;21.20;;
34711;SDS011;20941;42.408;25.634;2022-12-16T00:27:11;43.30;;;20.88;;
34711;SDS011;20941;42.408;25.634;2022-12-16T00:29:37;43.65;;;21.00;;
34711;SDS011;20941;42.408;25.634;2022-12-16T00:32:03;42.50;;;21.40;;
34711;SDS011;20941;42.408;25.634;2022-12-16T00:34:30;39.35;;;19.63;;
34711;SDS011;20941;42.408;25.634;2022-12-16T00:36:57;43.30;;;21.15;;
34711;SDS011;20941;42.408;25.634;2022-12-16T00:39:23;43.55;;;20.40;;
34711;SDS011;20941;42.408;25.634;2022-12-16T00:41:49;43.90;;;21.35;;
34711;SDS011;20941;42.408;25.634;2022-12-16T00:44:16;43.22;;;20.23;;
34711;SDS011;20941;42.408;25.634;2022-12-16T00:46:42;41.13;;;21.08;;
34711;SDS011;20941;42.408;25.634;2022-12-16T00:49:08;52.72;;;22.45;;
34711;SDS011;20941;42.408;25.634;2022-12-16T00:51:33;44.88;;;23.15;;
34711;SDS011;20941;42.408;25.634;2022-12-16T00:53:59;41.63;;;22.05;;
34711;SDS011;20941;42.408;25.634;2022-12-16T00:56:25;41.33;;;21.25;;
34711;SDS011;20941;42.408;25.634;2022-12-16T00:58:51;42.28;;;23.55;;
34711;SDS011;20941;42.408;25.634;2022-12-16T01:01:17;40.55;;;21.63;;
34711;SDS011;20941;42.408;25.634;2022-12-16T01:03:43;41.97;;;21.85;;
34711;SDS011;20941;42.408;25.634;2022-12-16T01:06:14;40.67;;;21.15;;
34711;SDS011;20941;42.408;25.634;2022-12-16T01:08:41;38.55;;;20.33;;
34711;SDS011;20941;42.408;25.634;2022-12-16T01:11:17;39.65;;;21.10;;
34711;SDS011;20941;42.408;25.634;2022-12-16T01:13:45;39.53;;;20.80;;
34711;SDS011;20941;42.408;25.634;2022-12-16T01:16:14;41.42;;;22.15;;
34711;SDS011;20941;42.408;25.634;2022-12-16T01:18:40;38.50;;;21.95;;
34711;SDS011;20941;42.408;25.634;2022-12-16T01:21:06;38.33;;;21.65;;
34711;SDS011;20941;42.408;25.634;2022-12-16T01:23:33;38.25;;;21.17;;
34711;SDS011;20941;42.408;25.634;2022-12-16T01:25:59;39.20;;;21.08;;
34711;SDS011;20941;42.408;25.634;2022-12-16T01:28:27;38.35;;;21.48;;
34711;SDS011;20941;42.408;25.634;2022-12-16T01:30:54;38.88;;;20.27;;
34711;SDS011;20941;42.408;25.634;2022-12-16T01:33:26;39.95;;;20.67;;
34711;SDS011;20941;42.408;25.634;2022-12-16T01:36:00;40.60;;;21.92;;
34711;SDS011;20941;42.408;25.634;2022-12-16T01:38:28;41.55;;;22.15;;
34711;SDS011;20941;42.408;25.634;2022-12-16T01:40:54;46.25;;;25.15;;
34711;SDS011;20941;42.408;25.634;2022-12-16T01:43:23;57.50;;;32.17;;
34711;SDS011;20941;42.408;25.634;2022-12-16T01:45:51;59.35;;;31.23;;
34711;SDS011;20941;42.408;25.634;2022-12-16T01:48:23;49.58;;;28.50;;
34711;SDS011;20941;42.408;25.634;2022-12-16T01:50:56;55.55;;;28.17;;
34711;SDS011;20941;42.408;25.634;2022-12-16T01:53:26;49.67;;;25.30;;
34711;SDS011;20941;42.408;25.634;2022-12-16T01:55:52;47.90;;;25.67;;
34711;SDS011;20941;42.408;25.634;2022-12-16T01:58:21;49.08;;;26.50;;
34711;SDS011;20941;42.408;25.634;2022-12-16T02:00:52;51.42;;;27.83;;
34711;SDS011;20941;42.408;25.634;2022-12-16T02:03:18;45.38;;;24.85;;
34711;SDS011;20941;42.408;25.634;2022-12-16T02:05:44;44.25;;;23.98;;
34711;SDS011;20941;42.408;25.634;2022-12-16T02:08:12;44.10;;;25.50;;
34711;SDS011;20941;42.408;25.634;2022-12-16T02:19:01;41.95;;;23.77;;
34711;SDS011;20941;42.408;25.634;2022-12-16T02:33:07;43.13;;;24.52;;
34711;SDS011;20941;42.408;25.634;2022-12-16T02:38:34;51.40;;;26.70;;
34711;SDS011;20941;42.408;25.634;2022-12-16T02:41:16;48.13;;;26.90;;
34711;SDS011;20941;42.408;25.634;2022-12-16T02:43:54;50.35;;;27.30;;
34711;SDS011;20941;42.408;25.634;2022-12-16T02:46:24;50.45;;;27.52;;
34711;SDS011;20941;42.408;25.634;2022-12-16T02:48:52;49.40;;;27.05;;
34711;SDS011;20941;42.408;25.634;2022-12-16T02:51:18;53.30;;;28.55;;
34711;SDS011;20941;42.408;25.634;2022-12-16T02:53:44;46.55;;;26.80;;
34711;SDS011;20941;42.408;25.634;2022-12-16T03:01:42;45.95;;;25.20;;
34711;SDS011;20941;42.408;25.634;2022-12-16T03:04:26;47.63;;;25.33;;
34711;SDS011;20941;42.408;25.634;2022-12-16T03:07:08;46.08;;;25.15;;
34711;SDS011;20941;42.408;25.634;2022-12-16T03:09:38;48.92;;;25.58;;
34711;SDS011;20941;42.408;25.634;2022-12-16T03:12:07;48.97;;;26.60;;
34711;SDS011;20941;42.408;25.634;2022-12-16T03:14:37;42.38;;;22.98;;
34711;SDS011;20941;42.408;25.634;2022-12-16T03:17:06;41.97;;;24.08;;
34711;SDS011;20941;42.408;25.634;2022-12-16T03:19:33;49.90;;;25.70;;
34711;SDS011;20941;42.408;25.634;2022-12-16T03:24:31;46.15;;;25.42;;
34711;SDS011;20941;42.408;25.634;2022-12-16T03:30:32;50.05;;;27.73;;
34711;SDS011;20941;42.408;25.634;2022-12-16T03:32:40;47.83;;;27.42;;
34711;SDS011;20941;42.408;25.634;2022-12-16T03:37:56;51.45;;;27.27;;
34711;SDS011;20941;42.408;25.634;2022-12-16T03:40:24;52.47;;;28.33;;
34711;SDS011;20941;42.408;25.634;2022-12-16T03:42:52;52.00;;;29.02;;
34711;SDS011;20941;42.408;25.634;2022-12-16T03:45:21;51.72;;;28.75;;
34711;SDS011;20941;42.408;25.634;2022-12-16T03:47:50;47.58;;;27.88;;
34711;SDS011;20941;42.408;25.634;2022-12-16T03:50:22;59.28;;;32.65;;
34711;SDS011;20941;42.408;25.634;2022-12-16T03:52:54;69.22;;;37.08;;
34711;SDS011;20941;42.408;25.634;2022-12-16T03:55:19;60.40;;;33.67;;
34711;SDS011;20941;42.408;25.634;2022-12-16T03:57:45;53.92;;;31.88;;
34711;SDS011;20941;42.408;25.634;2022-12-16T04:00:10;66.70;;;35.63;;
34711;SDS011;20941;42.408;25.634;2022-12-16T04:02:36;61.45;;;33.40;;
34711;SDS011;20941;42.408;25.634;2022-12-16T04:05:02;58.85;;;32.60;;
34711;SDS011;20941;42.408;25.634;2022-12-16T04:07:27;55.63;;;32.38;;
34711;SDS011;20941;42.408;25.634;2022-12-16T04:09:53;57.72;;;33.80;;
34711;SDS011;20941;42.408;25.634;2022-12-16T04:12:19;56.63;;;32.03;;
34711;SDS011;20941;42.408;25.634;2022-12-16T04:15:04;57.92;;;32.28;;
34711;SDS011;20941;42.408;25.634;2022-12-16T04:17:49;73.22;;;40.42;;
34711;SDS011;20941;42.408;25.634;2022-12-16T04:20:34;58.67;;;33.67;;
34711;SDS011;20941;42.408;25.634;2022-12-16T04:23:25;57.40;;;33.10;;
34711;SDS011;20941;42.408;25.634;2022-12-16T04:26:12;57.70;;;32.63;;
34711;SDS011;20941;42.408;25.634;2022-12-16T04:28:37;57.03;;;32.95;;
34711;SDS011;20941;42.408;25.634;2022-12-16T04:31:03;61.53;;;33.20;;
34711;SDS011;20941;42.408;25.634;2022-12-16T04:33:30;60.95;;;32.80;;
34711;SDS011;20941;42.408;25.634;2022-12-16T04:36:14;63.25;;;35.20;;
34711;SDS011;20941;42.408;25.634;2022-12-16T04:38:58;97.47;;;49.03;;
34711;SDS011;20941;42.408;25.634;2022-12-16T04:41:42;106.45;;;50.92;;
34711;SDS011;20941;42.408;25.634;2022-12-16T04:44:25;92.00;;;47.70;;
34711;SDS011;20941;42.408;25.634;2022-12-16T04:47:09;97.15;;;49.55;;
34711;SDS011;20941;42.408;25.634;2022-12-16T04:49:53;90.20;;;46.60;;
34711;SDS011;20941;42.408;25.634;2022-12-16T04:52:37;92.80;;;46.60;;
34711;SDS011;20941;42.408;25.634;2022-12-16T04:55:21;90.40;;;47.17;;
34711;SDS011;20941;42.408;25.634;2022-12-16T04:58:05;87.20;;;43.33;;
34711;SDS011;20941;42.408;25.634;2022-12-16T05:00:49;71.55;;;37.60;;
34711;SDS011;20941;42.408;25.634;2022-12-16T05:03:33;46.95;;;27.60;;
34711;SDS011;20941;42.408;25.634;2022-12-16T05:06:17;68.60;;;34.40;;
34711;SDS011;20941;42.408;25.634;2022-12-16T05:09:02;67.15;;;34.83;;
34711;SDS011;20941;42.408;25.634;2022-12-16T05:11:47;66.45;;;34.72;;
34711;SDS011;20941;42.408;25.634;2022-12-16T05:14:31;64.00;;;33.77;;
34711;SDS011;20941;42.408;25.634;2022-12-16T05:17:15;57.70;;;31.88;;
34711;SDS011;20941;42.408;25.634;2022-12-16T05:19:59;68.32;;;35.92;;
34711;SDS011;20941;42.408;25.634;2022-12-16T05:22:43;66.20;;;36.05;;
34711;SDS011;20941;42.408;25.634;2022-12-16T05:25:28;71.30;;;38.47;;
34711;SDS011;20941;42.408;25.634;2022-12-16T05:28:12;80.32;;;39.92;;
34711;SDS011;20941;42.408;25.634;2022-12-16T05:30:56;86.20;;;44.83;;
34711;SDS011;20941;42.408;25.634;2022-12-16T05:33:40;79.53;;;42.55;;
34711;SDS011;20941;42.408;25.634;2022-12-16T05:36:24;80.05;;;41.05;;
34711;SDS011;20941;42.408;25.634;2022-12-16T05:39:08;70.43;;;38.28;;
34711;SDS011;20941;42.408;25.634;2022-12-16T05:41:52;52.10;;;26.57;;
34711;SDS011;20941;42.408;25.634;2022-12-16T05:44:37;69.15;;;36.45;;
34711;SDS011;20941;42.408;25.634;2022-12-16T05:47:21;65.43;;;34.88;;
34711;SDS011;20941;42.408;25.634;2022-12-16T05:50:05;69.88;;;36.70;;
34711;SDS011;20941;42.408;25.634;2022-12-16T05:52:50;74.03;;;38.72;;
34711;SDS011;20941;42.408;25.634;2022-12-16T05:55:35;137.80;;;81.72;;
34711;SDS011;20941;42.408;25.634;2022-12-16T05:58:19;137.25;;;78.22;;
34711;SDS011;20941;42.408;25.634;2022-12-16T06:01:04;112.45;;;61.78;;
34711;SDS011;20941;42.408;25.634;2022-12-16T06:03:48;100.20;;;54.50;;
34711;SDS011;20941;42.408;25.634;2022-12-16T06:06:32;95.68;;;49.80;;
34711;SDS011;20941;42.408;25.634;2022-12-16T06:09:16;95.63;;;50.17;;
34711;SDS011;20941;42.408;25.634;2022-12-16T06:12:00;75.50;;;39.88;;
34711;SDS011;20941;42.408;25.634;2022-12-16T06:14:44;70.32;;;38.92;;
34711;SDS011;20941;42.408;25.634;2022-12-16T06:17:28;73.53;;;39.20;;
34711;SDS011;20941;42.408;25.634;2022-12-16T06:20:12;77.85;;;39.40;;
34711;SDS011;20941;42.408;25.634;2022-12-16T06:22:56;67.82;;;35.92;;
34711;SDS011;20941;42.408;25.634;2022-12-16T06:25:40;63.75;;;35.40;;
34711;SDS011;20941;42.408;25.634;2022-12-16T06:28:25;65.07;;;34.85;;
34711;SDS011;20941;42.408;25.634;2022-12-16T06:31:09;65.18;;;34.25;;
34711;SDS011;20941;42.408;25.634;2022-12-16T06:33:53;73.27;;;37.73;;
34711;SDS011;20941;42.408;25.634;2022-12-16T06:36:38;45.23;;;25.80;;
34711;SDS011;20941;42.408;25.634;2022-12-16T06:39:22;57.63;;;32.45;;
34711;SDS011;20941;42.408;25.634;2022-12-16T06:42:07;71.78;;;36.97;;
34711;SDS011;20941;42.408;25.634;2022-12-16T06:44:52;74.82;;;36.63;;
34711;SDS011;20941;42.408;25.634;2022-12-16T06:47:37;64.50;;;35.10;;
34711;SDS011;20941;42.408;25.634;2022-12-16T06:50:22;71.28;;;36.78;;
34711;SDS011;20941;42.408;25.634;2022-12-16T06:53:05;75.03;;;38.42;;
34711;SDS011;20941;42.408;25.634;2022-12-16T06:55:49;64.47;;;33.33;;
34711;SDS011;20941;42.408;25.634;2022-12-16T06:58:33;66.72;;;35.08;;
34711;SDS011;20941;42.408;25.634;2022-12-16T07:01:17;75.47;;;38.67;;
34711;SDS011;20941;42.408;25.634;2022-12-16T07:04:01;69.72;;;37.80;;
34711;SDS011;20941;42.408;25.634;2022-12-16T07:06:45;65.32;;;33.30;;
34711;SDS011;20941;42.408;25.634;2022-12-16T07:09:29;72.10;;;36.22;;
34711;SDS011;20941;42.408;25.634;2022-12-16T07:12:13;65.30;;;34.03;;
34711;SDS011;20941;42.408;25.634;2022-12-16T07:14:57;61.35;;;32.97;;
34711;SDS011;20941;42.408;25.634;2022-12-16T07:17:40;70.07;;;37.00;;
34711;SDS011;20941;42.408;25.634;2022-12-16T07:20:27;68.93;;;36.15;;
34711;SDS011;20941;42.408;25.634;2022-12-16T07:23:11;67.88;;;34.72;;
34711;SDS011;20941;42.408;25.634;2022-12-16T07:25:55;71.00;;;36.92;;
34711;SDS011;20941;42.408;25.634;2022-12-16T07:28:39;67.68;;;37.50;;
34711;SDS011;20941;42.408;25.634;2022-12-16T07:31:23;69.43;;;35.60;;
34711;SDS011;20941;42.408;25.634;2022-12-16T07:34:07;62.35;;;32.75;;
34711;SDS011;20941;42.408;25.634;2022-12-16T07:36:51;61.35;;;33.95;;
34711;SDS011;20941;42.408;25.634;2022-12-16T07:39:35;59.42;;;30.95;;
34711;SDS011;20941;42.408;25.634;2022-12-16T07:42:19;58.33;;;30.70;;
34711;SDS011;20941;42.408;25.634;2022-12-16T07:45:04;70.78;;;34.72;;
34711;SDS011;20941;42.408;25.634;2022-12-16T07:47:48;45.40;;;25.05;;
34711;SDS011;20941;42.408;25.634;2022-12-16T07:53:18;56.50;;;29.30;;
34711;SDS011;20941;42.408;25.634;2022-12-16T07:56:02;60.03;;;29.70;;
34711;SDS011;20941;42.408;25.634;2022-12-16T07:58:46;110.00;;;56.97;;
34711;SDS011;20941;42.408;25.634;2022-12-16T08:01:30;99.90;;;55.83;;
34711;SDS011;20941;42.408;25.634;2022-12-16T08:04:14;118.88;;;63.50;;
34711;SDS011;20941;42.408;25.634;2022-12-16T08:06:58;93.40;;;47.22;;
34711;SDS011;20941;42.408;25.634;2022-12-16T08:09:42;101.43;;;50.42;;
34711;SDS011;20941;42.408;25.634;2022-12-16T08:12:26;123.53;;;64.22;;
34711;SDS011;20941;42.408;25.634;2022-12-16T08:15:10;116.88;;;63.58;;
34711;SDS011;20941;42.408;25.634;2022-12-16T08:17:54;158.05;;;90.60;;
34711;SDS011;20941;42.408;25.634;2022-12-16T08:20:38;81.07;;;39.13;;
34711;SDS011;20941;42.408;25.634;2022-12-16T08:23:22;67.97;;;35.08;;
34711;SDS011;20941;42.408;25.634;2022-12-16T08:26:06;69.53;;;35.23;;
34711;SDS011;20941;42.408;25.634;2022-12-16T08:28:50;67.13;;;35.70;;
34711;SDS011;20941;42.408;25.634;2022-12-16T08:31:34;50.03;;;26.55;;
34711;SDS011;20941;42.408;25.634;2022-12-16T08:34:18;48.03;;;25.63;;
34711;SDS011;20941;42.408;25.634;2022-12-16T08:37:03;45.63;;;22.40;;
34711;SDS011;20941;42.408;25.634;2022-12-16T08:39:46;43.05;;;22.27;;
34711;SDS011;20941;42.408;25.634;2022-12-16T08:42:31;45.13;;;23.42;;
34711;SDS011;20941;42.408;25.634;2022-12-16T08:45:15;45.63;;;23.13;;
34711;SDS011;20941;42.408;25.634;2022-12-16T08:47:59;49.15;;;24.75;;
34711;SDS011;20941;42.408;25.634;2022-12-16T08:50:43;45.47;;;24.83;;
34711;SDS011;20941;42.408;25.634;2022-12-16T08:53:27;44.03;;;23.80;;
34711;SDS011;20941;42.408;25.634;2022-12-16T08:56:11;50.63;;;27.25;;
34711;SDS011;20941;42.408;25.634;2022-12-16T08:58:55;46.55;;;26.30;;
34711;SDS011;20941;42.408;25.634;2022-12-16T09:01:39;38.72;;;23.35;;
34711;SDS011;20941;42.408;25.634;2022-12-16T09:04:23;43.88;;;22.75;;
34711;SDS011;20941;42.408;25.634;2022-12-16T09:07:07;38.55;;;22.13;;
34711;SDS011;20941;42.408;25.634;2022-12-16T09:09:51;38.17;;;20.80;;
34711;SDS011;20941;42.408;25.634;2022-12-16T09:12:35;37.17;;;20.48;;
34711;SDS011;20941;42.408;25.634;2022-12-16T09:15:19;37.47;;;21.58;;
34711;SDS011;20941;42.408;25.634;2022-12-16T09:18:03;42.85;;;21.65;;
34711;SDS011;20941;42.408;25.634;2022-12-16T09:20:57;41.35;;;23.17;;
34711;SDS011;20941;42.408;25.634;2022-12-16T09:23:42;41.40;;;22.50;;
34711;SDS011;20941;42.408;25.634;2022-12-16T09:26:27;45.38;;;24.42;;
34711;SDS011;20941;42.408;25.634;2022-12-16T09:29:22;46.78;;;24.25;;
34711;SDS011;20941;42.408;25.634;2022-12-16T09:32:06;45.58;;;24.00;;
34711;SDS011;20941;42.408;25.634;2022-12-16T09:34:50;50.78;;;25.52;;
34711;SDS011;20941;42.408;25.634;2022-12-16T09:37:34;50.60;;;25.92;;
34711;SDS011;20941;42.408;25.634;2022-12-16T09:40:18;46.10;;;26.27;;
34711;SDS011;20941;42.408;25.634;2022-12-16T09:46:24;50.88;;;27.17;;
34711;SDS011;20941;42.408;25.634;2022-12-16T09:52:14;44.20;;;23.95;;
34711;SDS011;20941;42.408;25.634;2022-12-16T09:55:02;50.85;;;25.95;;
34711;SDS011;20941;42.408;25.634;2022-12-16T09:58:02;43.63;;;25.13;;
34711;SDS011;20941;42.408;25.634;2022-12-16T10:00:47;43.97;;;22.98;;
34711;SDS011;20941;42.408;25.634;2022-12-16T10:03:37;45.47;;;24.42;;
34711;SDS011;20941;42.408;25.634;2022-12-16T10:12:13;51.75;;;25.65;;
34711;SDS011;20941;42.408;25.634;2022-12-16T10:15:12;53.55;;;25.35;;
34711;SDS011;20941;42.408;25.634;2022-12-16T10:18:03;53.10;;;25.48;;
34711;SDS011;20941;42.408;25.634;2022-12-16T10:21:09;43.47;;;23.92;;
34711;SDS011;20941;42.408;25.634;2022-12-16T10:27:12;48.58;;;26.70;;
34711;SDS011;20941;42.408;25.634;2022-12-16T10:29:58;48.30;;;25.58;;
34711;SDS011;20941;42.408;25.634;2022-12-16T10:32:45;49.78;;;24.95;;
34711;SDS011;20941;42.408;25.634;2022-12-16T10:35:40;44.00;;;24.17;;
34711;SDS011;20941;42.408;25.634;2022-12-16T10:41:12;58.55;;;32.67;;
34711;SDS011;20941;42.408;25.634;2022-12-16T10:43:56;70.72;;;41.30;;
34711;SDS011;20941;42.408;25.634;2022-12-16T10:46:41;47.70;;;25.90;;
34711;SDS011;20941;42.408;25.634;2022-12-16T10:49:26;49.80;;;25.53;;
34711;SDS011;20941;42.408;25.634;2022-12-16T10:52:11;50.87;;;26.07;;
34711;SDS011;20941;42.408;25.634;2022-12-16T10:54:57;55.65;;;27.73;;
34711;SDS011;20941;42.408;25.634;2022-12-16T10:58:11;60.22;;;29.30;;
34711;SDS011;20941;42.408;25.634;2022-12-16T11:01:18;60.78;;;29.13;;
34711;SDS011;20941;42.408;25.634;2022-12-16T11:10:22;59.85;;;29.25;;
34711;SDS011;20941;42.408;25.634;2022-12-16T11:13:11;60.35;;;29.33;;
34711;SDS011;20941;42.408;25.634;2022-12-16T11:16:11;68.07;;;30.85;;
34711;SDS011;20941;42.408;25.634;2022-12-16T11:18:57;68.03;;;32.42;;
34711;SDS011;20941;42.408;25.634;2022-12-16T11:21:42;76.05;;;39.33;;
34711;SDS011;20941;42.408;25.634;2022-12-16T11:24:26;54.80;;;27.58;;
34711;SDS011;20941;42.408;25.634;2022-12-16T11:27:15;65.03;;;28.48;;
34711;SDS011;20941;42.408;25.634;2022-12-16T11:32:55;60.40;;;28.35;;
34711;SDS011;20941;42.408;25.634;2022-12-16T11:35:47;63.45;;;28.98;;
34711;SDS011;20941;42.408;25.634;2022-12-16T11:41:36;58.33;;;29.02;;
34711;SDS011;20941;42.408;25.634;2022-12-16T11:44:28;55.72;;;25.60;;
34711;SDS011;20941;42.408;25.634;2022-12-16T11:47:21;58.33;;;27.52;;
34711;SDS011;20941;42.408;25.634;2022-12-16T11:50:27;65.65;;;25.77;;
34711;SDS011;20941;42.408;25.634;2022-12-16T11:56:26;60.60;;;27.50;;
34711;SDS011;20941;42.408;25.634;2022-12-16T11:59:20;64.05;;;29.15;;
34711;SDS011;20941;42.408;25.634;2022-12-16T12:02:25;60.50;;;27.02;;
34711;SDS011;20941;42.408;25.634;2022-12-16T12:05:35;59.83;;;28.80;;
34711;SDS011;20941;42.408;25.634;2022-12-16T12:11:12;65.20;;;28.10;;
34711;SDS011;20941;42.408;25.634;2022-12-16T12:17:23;63.20;;;28.58;;
34711;SDS011;20941;42.408;25.634;2022-12-16T12:20:38;65.97;;;28.63;;
34711;SDS011;20941;42.408;25.634;2022-12-16T12:23:55;73.15;;;28.73;;
34711;SDS011;20941;42.408;25.634;2022-12-16T12:30:44;68.33;;;32.03;;
34711;SDS011;20941;42.408;25.634;2022-12-16T12:37:09;67.18;;;30.23;;
34711;SDS011;20941;42.408;25.634;2022-12-16T12:40:09;76.53;;;32.58;;
34711;SDS011;20941;42.408;25.634;2022-12-16T12:43:05;81.55;;;33.25;;
34711;SDS011;20941;42.408;25.634;2022-12-16T12:46:08;83.82;;;35.13;;
34711;SDS011;20941;42.408;25.634;2022-12-16T12:52:35;76.00;;;33.28;;
34711;SDS011;20941;42.408;25.634;2022-12-16T12:55:25;82.47;;;33.47;;
34711;SDS011;20941;42.408;25.634;2022-12-16T12:58:19;76.07;;;32.08;;
34711;SDS011;20941;42.408;25.634;2022-12-16T13:01:05;83.25;;;32.58;;
34711;SDS011;20941;42.408;25.634;2022-12-16T13:06:38;92.63;;;32.50;;
34711;SDS011;20941;42.408;25.634;2022-12-16T13:09:23;85.82;;;33.50;;
34711;SDS011;20941;42.408;25.634;2022-12-16T13:15:01;76.78;;;33.70;;
34711;SDS011;20941;42.408;25.634;2022-12-16T13:20:42;83.90;;;35.67;;
34711;SDS011;20941;42.408;25.634;2022-12-16T13:23:28;93.45;;;34.53;;
34711;SDS011;20941;42.408;25.634;2022-12-16T13:26:17;91.88;;;37.80;;
34711;SDS011;20941;42.408;25.634;2022-12-16T13:29:19;96.97;;;35.65;;
34711;SDS011;20941;42.408;25.634;2022-12-16T13:37:55;95.32;;;34.70;;
34711;SDS011;20941;42.408;25.634;2022-12-16T13:40:48;83.40;;;32.50;;
34711;SDS011;20941;42.408;25.634;2022-12-16T13:43:47;86.57;;;35.22;;
34711;SDS011;20941;42.408;25.634;2022-12-16T13:46:42;77.13;;;30.40;;
34711;SDS011;20941;42.408;25.634;2022-12-16T13:55:43;94.55;;;37.30;;
34711;SDS011;20941;42.408;25.634;2022-12-16T13:58:47;91.38;;;35.97;;
34711;SDS011;20941;42.408;25.634;2022-12-16T14:01:37;87.00;;;32.15;;
34711;SDS011;20941;42.408;25.634;2022-12-16T14:04:43;95.38;;;34.63;;
34711;SDS011;20941;42.408;25.634;2022-12-16T14:07:28;98.70;;;35.17;;
34711;SDS011;20941;42.408;25.634;2022-12-16T14:16:09;94.70;;;34.15;;
34711;SDS011;20941;42.408;25.634;2022-12-16T14:19:13;93.53;;;32.55;;
34711;SDS011;20941;42.408;25.634;2022-12-16T14:25:24;90.13;;;31.75;;
34711;SDS011;20941;42.408;25.634;2022-12-16T14:28:28;81.32;;;31.15;;
34711;SDS011;20941;42.408;25.634;2022-12-16T14:31:24;99.85;;;34.42;;
34711;SDS011;20941;42.408;25.634;2022-12-16T14:34:15;87.93;;;34.47;;
34711;SDS011;20941;42.408;25.634;2022-12-16T14:40:04;107.40;;;35.17;;
34711;SDS011;20941;42.408;25.634;2022-12-16T14:43:15;96.85;;;34.13;;
34711;SDS011;20941;42.408;25.634;2022-12-16T14:46:03;103.85;;;36.83;;
34711;SDS011;20941;42.408;25.634;2022-12-16T14:48:48;101.57;;;37.90;;
34711;SDS011;20941;42.408;25.634;2022-12-16T14:51:34;101.63;;;37.90;;
34711;SDS011;20941;42.408;25.634;2022-12-16T14:57:19;107.00;;;40.00;;
34711;SDS011;20941;42.408;25.634;2022-12-16T15:02:52;112.00;;;41.83;;
34711;SDS011;20941;42.408;25.634;2022-12-16T15:05:38;111.85;;;44.67;;
34711;SDS011;20941;42.408;25.634;2022-12-16T15:08:25;131.52;;;50.35;;
34711;SDS011;20941;42.408;25.634;2022-12-16T15:11:11;122.50;;;46.67;;
34711;SDS011;20941;42.408;25.634;2022-12-16T15:13:58;125.90;;;47.75;;
34711;SDS011;20941;42.408;25.634;2022-12-16T15:16:45;130.38;;;49.55;;
34711;SDS011;20941;42.408;25.634;2022-12-16T15:19:45;133.52;;;51.50;;
34711;SDS011;20941;42.408;25.634;2022-12-16T15:22:34;130.90;;;49.50;;
34711;SDS011;20941;42.408;25.634;2022-12-16T15:25:19;119.72;;;43.75;;
34711;SDS011;20941;42.408;25.634;2022-12-16T15:28:17;105.68;;;38.08;;
34711;SDS011;20941;42.408;25.634;2022-12-16T15:31:22;108.32;;;37.28;;
34711;SDS011;20941;42.408;25.634;2022-12-16T15:34:16;111.18;;;41.58;;
34711;SDS011;20941;42.408;25.634;2022-12-16T15:37:40;113.60;;;42.55;;
34711;SDS011;20941;42.408;25.634;2022-12-16T15:40:28;106.82;;;40.25;;
34711;SDS011;20941;42.408;25.634;2022-12-16T15:46:25;121.38;;;43.05;;
34711;SDS011;20941;42.408;25.634;2022-12-16T15:49:22;115.32;;;42.97;;
34711;SDS011;20941;42.408;25.634;2022-12-16T15:58:20;121.22;;;48.30;;
34711;SDS011;20941;42.408;25.634;2022-12-16T16:01:09;133.98;;;47.42;;
34711;SDS011;20941;42.408;25.634;2022-12-16T16:06:49;129.38;;;45.95;;
34711;SDS011;20941;42.408;25.634;2022-12-16T16:09:35;102.10;;;37.35;;
34711;SDS011;20941;42.408;25.634;2022-12-16T16:12:21;100.88;;;37.00;;
34711;SDS011;20941;42.408;25.634;2022-12-16T16:15:23;109.25;;;41.40;;
34711;SDS011;20941;42.408;25.634;2022-12-16T16:18:08;110.07;;;42.90;;
34711;SDS011;20941;42.408;25.634;2022-12-16T16:20:53;110.65;;;42.50;;
34711;SDS011;20941;42.408;25.634;2022-12-16T16:23:36;113.65;;;45.25;;
34711;SDS011;20941;42.408;25.634;2022-12-16T16:26:21;107.53;;;40.78;;
34711;SDS011;20941;42.408;25.634;2022-12-16T16:29:09;116.95;;;42.40;;
34711;SDS011;20941;42.408;25.634;2022-12-16T16:31:53;105.95;;;41.30;;
34711;SDS011;20941;42.408;25.634;2022-12-16T16:34:37;110.13;;;42.47;;
34711;SDS011;20941;42.408;25.634;2022-12-16T16:37:21;113.07;;;44.80;;
34711;SDS011;20941;42.408;25.634;2022-12-16T16:40:15;116.32;;;43.53;;
34711;SDS011;20941;42.408;25.634;2022-12-16T16:43:19;113.25;;;43.70;;
34711;SDS011;20941;42.408;25.634;2022-12-16T16:46:04;127.03;;;46.60;;
34711;SDS011;20941;42.408;25.634;2022-12-16T16:49:03;124.40;;;44.53;;
34711;SDS011;20941;42.408;25.634;2022-12-16T16:51:51;142.13;;;54.22;;
34711;SDS011;20941;42.408;25.634;2022-12-16T16:54:35;155.55;;;55.30;;
34711;SDS011;20941;42.408;25.634;2022-12-16T17:00:04;139.55;;;51.25;;
34711;SDS011;20941;42.408;25.634;2022-12-16T17:02:48;143.48;;;52.90;;
34711;SDS011;20941;42.408;25.634;2022-12-16T17:05:32;133.65;;;53.70;;
34711;SDS011;20941;42.408;25.634;2022-12-16T17:08:16;122.78;;;48.72;;
34711;SDS011;20941;42.408;25.634;2022-12-16T17:11:00;142.45;;;50.42;;
34711;SDS011;20941;42.408;25.634;2022-12-16T17:13:44;125.30;;;50.70;;
34711;SDS011;20941;42.408;25.634;2022-12-16T17:16:28;122.88;;;49.47;;
34711;SDS011;20941;42.408;25.634;2022-12-16T17:19:12;134.35;;;50.17;;
34711;SDS011;20941;42.408;25.634;2022-12-16T17:21:56;106.05;;;45.15;;
34711;SDS011;20941;42.408;25.634;2022-12-16T17:24:40;109.80;;;46.72;;
34711;SDS011;20941;42.408;25.634;2022-12-16T17:27:24;126.35;;;47.25;;
34711;SDS011;20941;42.408;25.634;2022-12-16T17:30:16;124.40;;;49.88;;
34711;SDS011;20941;42.408;25.634;2022-12-16T17:33:02;115.78;;;48.92;;
34711;SDS011;20941;42.408;25.634;2022-12-16T17:35:47;112.15;;;48.50;;
34711;SDS011;20941;42.408;25.634;2022-12-16T17:38:35;122.05;;;49.40;;
34711;SDS011;20941;42.408;25.634;2022-12-16T17:41:23;113.88;;;49.33;;
34711;SDS011;20941;42.408;25.634;2022-12-16T17:44:09;131.63;;;55.53;;
34711;SDS011;20941;42.408;25.634;2022-12-16T17:46:53;133.57;;;53.45;;
34711;SDS011;20941;42.408;25.634;2022-12-16T17:49:37;118.72;;;49.88;;
34711;SDS011;20941;42.408;25.634;2022-12-16T17:52:21;127.95;;;51.10;;
34711;SDS011;20941;42.408;25.634;2022-12-16T17:55:05;119.55;;;50.30;;
34711;SDS011;20941;42.408;25.634;2022-12-16T17:57:49;127.50;;;52.20;;